createdAt,value
2019-05-13T00:01:34.535Z,3.10
2019-05-13T00:04:03.926Z,3.10
2019-05-13T00:06:34.305Z,3.10
2019-05-13T00:09:06.365Z,3.10
2019-05-13T00:11:35.723Z,3.00
2019-05-13T00:14:05.092Z,3.00
2019-05-13T00:16:34.456Z,3.00
2019-05-13T00:19:04.262Z,3.00
2019-05-13T00:21:34.027Z,2.90
2019-05-13T00:24:04.078Z,2.90
2019-05-13T00:26:33.890Z,2.90
2019-05-13T00:29:04.170Z,2.90
2019-05-13T00:31:33.776Z,2.90
2019-05-13T00:34:03.777Z,2.90
2019-05-13T00:36:33.906Z,2.90
2019-05-13T00:39:05.833Z,2.90
2019-05-13T00:41:35.108Z,2.80
2019-05-13T00:44:04.467Z,2.80
2019-05-13T00:46:34.094Z,2.80
2019-05-13T00:49:04.814Z,2.80
2019-05-13T00:51:34.347Z,2.80
2019-05-13T00:54:04.302Z,2.80
2019-05-13T00:56:34.645Z,2.80
2019-05-13T00:59:04.145Z,2.70
2019-05-13T01:01:34.165Z,2.60
2019-05-13T01:04:04.106Z,2.50
2019-05-13T01:06:35.586Z,2.50
2019-05-13T01:09:07.350Z,2.40
2019-05-13T01:11:36.587Z,2.40
2019-05-13T01:14:06.041Z,2.30
2019-05-13T01:16:37.031Z,2.30
2019-05-13T01:19:06.436Z,2.20
2019-05-13T01:21:36.461Z,2.20
2019-05-13T01:24:05.789Z,2.10
2019-05-13T01:26:35.267Z,2.10
2019-05-13T01:29:04.562Z,2.00
2019-05-13T01:31:34.338Z,2.00
2019-05-13T01:34:04.229Z,1.90
2019-05-13T01:36:35.120Z,1.90
2019-05-13T01:39:07.108Z,1.80
2019-05-13T01:41:38.680Z,1.80
2019-05-13T01:44:08.013Z,1.70
2019-05-13T01:46:37.460Z,1.70
2019-05-13T01:49:06.825Z,1.70
2019-05-13T01:51:36.416Z,1.70
2019-05-13T01:54:05.752Z,1.60
2019-05-13T01:56:35.095Z,1.60
2019-05-13T01:59:04.489Z,1.50
2019-05-13T02:01:33.935Z,1.50
2019-05-13T02:04:04.035Z,1.40
2019-05-13T02:06:33.805Z,1.40
2019-05-13T02:09:04.834Z,1.40
2019-05-13T02:11:34.265Z,1.40
2019-05-13T02:14:05.734Z,1.30
2019-05-13T02:16:34.837Z,1.30
2019-05-13T02:19:04.153Z,1.30
2019-05-13T02:21:33.724Z,1.30
2019-05-13T02:24:04.379Z,1.20
2019-05-13T02:26:34.544Z,1.20
2019-05-13T02:29:04.011Z,1.20
2019-05-13T02:31:45.274Z,1.10
2019-05-13T02:34:04.271Z,1.10
2019-05-13T02:36:33.635Z,1.10
2019-05-13T02:39:04.962Z,1.10
2019-05-13T02:41:34.314Z,1.10
2019-05-13T02:44:03.974Z,1.00
2019-05-13T02:46:34.092Z,1.00
2019-05-13T02:49:03.623Z,1.00
2019-05-13T02:51:33.109Z,1.00
2019-05-13T02:54:03.578Z,1.00
2019-05-13T02:56:33.316Z,1.00
2019-05-13T02:59:03.900Z,1.00
2019-05-13T03:01:33.563Z,1.00
2019-05-13T03:04:03.368Z,0.90
2019-05-13T03:06:33.477Z,0.90
2019-05-13T03:09:04.074Z,0.80
2019-05-13T03:11:33.485Z,0.80
2019-05-13T03:14:03.708Z,0.80
2019-05-13T03:16:57.560Z,0.80
2019-05-13T03:19:26.878Z,0.80
2019-05-13T03:21:56.136Z,0.70
2019-05-13T03:24:25.507Z,0.70
2019-05-13T03:26:54.763Z,0.70
2019-05-13T03:29:23.981Z,0.70
2019-05-13T03:31:55.913Z,0.70
2019-05-13T03:34:26.186Z,0.60
2019-05-13T03:36:57.958Z,0.60
2019-05-13T03:39:27.964Z,0.70
2019-05-13T03:42:02.755Z,0.70
2019-05-13T03:44:32.877Z,0.70
2019-05-13T03:47:04.031Z,0.70
2019-05-13T03:49:36.179Z,0.60
2019-05-13T03:52:05.545Z,0.60
2019-05-13T03:54:35.398Z,0.60
2019-05-13T03:57:04.784Z,0.60
2019-05-13T03:59:34.229Z,0.50
2019-05-13T04:02:03.584Z,0.60
2019-05-13T04:04:32.962Z,0.60
2019-05-13T04:07:03.013Z,0.60
2019-05-13T04:09:36.441Z,0.60
2019-05-13T04:12:04.030Z,0.60
2019-05-13T04:14:34.009Z,0.60
2019-05-13T04:17:03.740Z,0.70
2019-05-13T04:19:34.162Z,0.70
2019-05-13T04:22:03.816Z,0.80
2019-05-13T04:24:33.887Z,0.80
2019-05-13T04:27:03.506Z,0.90
2019-05-13T04:29:33.618Z,0.90
2019-05-13T04:32:03.160Z,1.00
2019-05-13T04:34:33.868Z,1.10
2019-05-13T04:37:03.549Z,1.10
2019-05-13T04:39:46.055Z,1.20
2019-05-13T04:42:03.833Z,1.30
2019-05-13T04:44:33.138Z,1.40
2019-05-13T04:47:03.758Z,1.60
2019-05-13T04:49:33.543Z,1.70
2019-05-13T04:52:03.747Z,1.80
2019-05-13T04:54:33.884Z,2.00
2019-05-13T04:57:03.591Z,2.20
2019-05-13T04:59:35.753Z,2.40
2019-05-13T05:02:55.372Z,2.70
2019-05-13T05:05:53.105Z,3.10
2019-05-13T05:09:05.760Z,3.50
2019-05-13T05:12:24.824Z,3.90
2019-05-13T05:15:52.246Z,4.30
2019-05-13T05:19:13.155Z,4.60
2019-05-13T05:22:08.874Z,4.80
2019-05-13T05:25:01.351Z,4.80
2019-05-13T05:27:58.474Z,5.00
2019-05-13T05:31:04.136Z,5.30
2019-05-13T05:34:11.464Z,5.60
2019-05-13T05:37:22.303Z,6.10
2019-05-13T05:39:55.100Z,6.50
2019-05-13T05:42:27.010Z,6.90
2019-05-13T05:44:57.319Z,7.20
2019-05-13T05:47:29.052Z,7.50
2019-05-13T05:49:59.616Z,7.60
2019-05-13T05:52:31.713Z,7.70
2019-05-13T05:55:02.599Z,7.70
2019-05-13T05:57:33.625Z,7.90
2019-05-13T06:00:03.860Z,8.00
2019-05-13T06:02:34.777Z,8.20
2019-05-13T06:05:05.625Z,8.50
2019-05-13T06:07:36.799Z,8.80
2019-05-13T06:10:06.435Z,9.00
2019-05-13T06:12:36.658Z,9.00
2019-05-13T06:15:06.375Z,9.00
2019-05-13T06:17:35.748Z,9.10
2019-05-13T06:20:13.435Z,9.30
2019-05-13T06:22:44.078Z,9.80
2019-05-13T06:25:14.440Z,10.30
2019-05-13T06:27:47.304Z,10.40
2019-05-13T06:30:16.768Z,10.90
2019-05-13T06:32:46.146Z,11.10
2019-05-13T06:35:15.608Z,11.50
2019-05-13T06:37:45.019Z,11.90
2019-05-13T06:40:14.741Z,12.40
2019-05-13T06:42:44.185Z,12.80
2019-05-13T06:45:13.788Z,12.80
2019-05-13T06:47:43.106Z,13.00
2019-05-13T06:50:12.522Z,13.10
2019-05-13T06:52:42.606Z,13.20
2019-05-13T06:55:12.088Z,13.40
2019-05-13T06:57:42.276Z,13.50
2019-05-13T07:00:12.286Z,13.20
2019-05-13T07:02:42.687Z,13.30
2019-05-13T07:05:12.501Z,13.20
2019-05-13T07:07:42.475Z,13.30
2019-05-13T07:10:12.681Z,13.40
2019-05-13T07:12:42.189Z,13.30
2019-05-13T07:15:12.577Z,13.30
2019-05-13T07:17:41.910Z,13.20
2019-05-13T07:20:11.775Z,13.30
2019-05-13T07:22:42.076Z,13.40
2019-05-13T07:25:11.821Z,13.70
2019-05-13T07:27:42.370Z,13.70
2019-05-13T07:30:12.205Z,13.80
2019-05-13T07:32:42.177Z,14.00
2019-05-13T07:35:14.152Z,14.10
2019-05-13T07:37:43.015Z,14.30
2019-05-13T07:40:12.583Z,14.30
2019-05-13T07:42:42.132Z,14.50
2019-05-13T07:45:12.129Z,14.40
2019-05-13T07:47:42.024Z,14.50
2019-05-13T07:50:12.747Z,14.60
2019-05-13T07:52:42.453Z,14.70
2019-05-13T07:55:12.184Z,14.90
2019-05-13T07:57:42.333Z,15.20
2019-05-13T08:00:12.625Z,15.30
2019-05-13T08:02:42.192Z,15.50
2019-05-13T08:05:12.122Z,15.70
2019-05-13T08:07:42.229Z,15.70
2019-05-13T08:10:12.070Z,15.90
2019-05-13T08:12:41.522Z,16.10
2019-05-13T08:15:12.028Z,16.40
2019-05-13T08:17:47.240Z,16.40
2019-05-13T08:20:12.894Z,16.60
2019-05-13T08:22:42.599Z,16.60
2019-05-13T08:25:12.692Z,16.80
2019-05-13T08:27:42.276Z,17.00
2019-05-13T08:30:12.102Z,17.00
2019-05-13T08:32:42.030Z,16.90
2019-05-13T08:35:13.092Z,17.00
2019-05-13T08:37:42.556Z,17.20
2019-05-13T08:40:12.292Z,17.30
2019-05-13T08:42:41.731Z,17.30
2019-05-13T08:45:12.016Z,17.50
2019-05-13T08:47:42.045Z,17.60
2019-05-13T08:50:12.417Z,17.30
2019-05-13T08:52:42.409Z,17.60
2019-05-13T08:55:15.851Z,17.80
2019-05-13T08:57:42.888Z,17.90
2019-05-13T09:00:13.640Z,17.60
2019-05-13T09:02:43.167Z,17.50
2019-05-13T09:05:17.144Z,17.60
2019-05-13T09:07:44.083Z,17.90
2019-05-13T09:10:13.930Z,18.00
2019-05-13T09:12:43.547Z,18.30
2019-05-13T09:15:13.287Z,18.70
2019-05-13T09:17:42.698Z,18.90
2019-05-13T09:20:12.218Z,18.90
2019-05-13T09:22:41.752Z,18.90
2019-05-13T09:25:12.499Z,19.00
2019-05-13T09:27:42.560Z,19.00
2019-05-13T09:30:12.227Z,19.10
2019-05-13T09:32:42.545Z,19.10
2019-05-13T09:35:12.236Z,18.90
2019-05-13T09:37:42.320Z,19.00
2019-05-13T09:40:12.075Z,18.70
2019-05-13T09:42:49.218Z,18.70
2019-05-13T09:45:12.600Z,19.10
2019-05-13T09:47:42.001Z,19.40
2019-05-13T09:50:27.647Z,19.40
2019-05-13T09:52:43.008Z,19.40
2019-05-13T09:55:25.296Z,19.30
2019-05-13T09:57:44.448Z,19.60
2019-05-13T10:00:14.009Z,19.30
2019-05-13T10:02:43.368Z,19.60
2019-05-13T10:05:12.836Z,19.70
2019-05-13T10:07:42.616Z,19.50
2019-05-13T10:10:12.258Z,19.50
2019-05-13T10:12:42.482Z,19.60
2019-05-13T10:15:12.909Z,19.80
2019-05-13T10:17:42.999Z,20.00
2019-05-13T10:20:12.856Z,19.90
2019-05-13T10:22:42.294Z,20.20
2019-05-13T10:25:14.423Z,20.40
2019-05-13T10:27:43.913Z,20.60
2019-05-13T10:30:13.896Z,20.50
2019-05-13T10:32:43.251Z,20.50
2019-05-13T10:35:13.197Z,20.30
2019-05-13T10:37:43.954Z,20.20
2019-05-13T10:40:13.459Z,20.70
2019-05-13T10:42:43.376Z,20.30
2019-05-13T10:45:13.112Z,19.90
2019-05-13T10:47:42.517Z,19.90
2019-05-13T10:50:12.048Z,20.00
2019-05-13T10:52:42.738Z,20.20
2019-05-13T10:55:12.956Z,20.10
2019-05-13T10:57:42.563Z,20.50
2019-05-13T11:00:12.804Z,20.80
2019-05-13T11:02:42.506Z,20.90
2019-05-13T11:05:12.383Z,20.70
2019-05-13T11:07:42.199Z,20.70
2019-05-13T11:10:13.332Z,21.10
2019-05-13T11:12:42.938Z,20.90
2019-05-13T11:15:13.816Z,21.00
2019-05-13T11:17:43.272Z,21.20
2019-05-13T11:20:12.757Z,21.30
2019-05-13T11:22:42.253Z,21.40
2019-05-13T11:25:12.431Z,21.30
2019-05-13T11:27:42.340Z,21.40
2019-05-13T11:30:11.910Z,21.70
2019-05-13T11:32:42.664Z,21.40
2019-05-13T11:35:13.051Z,21.20
2019-05-13T11:37:43.544Z,21.30
2019-05-13T11:40:13.800Z,21.30
2019-05-13T11:42:43.146Z,21.30
2019-05-13T11:45:13.047Z,21.50
2019-05-13T11:47:42.578Z,21.60
2019-05-13T11:50:12.228Z,21.70
2019-05-13T11:52:42.531Z,21.40
2019-05-13T11:55:13.148Z,21.40
2019-05-13T11:57:44.408Z,21.40
2019-05-13T12:00:14.471Z,21.50
2019-05-13T12:02:50.654Z,21.70
2019-05-13T12:05:15.334Z,22.20
2019-05-13T12:07:44.625Z,22.30
2019-05-13T12:10:14.151Z,22.20
2019-05-13T12:12:44.195Z,22.00
2019-05-13T12:15:28.079Z,22.00
2019-05-13T12:17:45.086Z,22.10
2019-05-13T12:20:14.360Z,22.10
2019-05-13T12:22:44.033Z,22.00
2019-05-13T12:25:14.045Z,21.90
2019-05-13T12:27:43.634Z,22.20
2019-05-13T12:30:13.239Z,22.00
2019-05-13T12:32:43.718Z,22.50
2019-05-13T12:35:13.670Z,22.60
2019-05-13T12:37:43.350Z,22.40
2019-05-13T12:40:12.857Z,22.50
2019-05-13T12:42:46.278Z,22.40
2019-05-13T12:45:14.395Z,21.90
2019-05-13T12:47:44.122Z,21.70
2019-05-13T12:50:14.092Z,21.20
2019-05-13T12:52:43.971Z,21.20
2019-05-13T12:55:14.218Z,21.10
2019-05-13T12:57:43.767Z,21.20
2019-05-13T13:00:13.786Z,21.30
2019-05-13T13:02:50.066Z,21.20
2019-05-13T13:05:20.340Z,20.90
2019-05-13T13:08:12.158Z,21.40
2019-05-13T13:10:16.786Z,21.80
2019-05-13T13:12:46.269Z,21.90
2019-05-13T13:15:36.075Z,21.90
2019-05-13T13:17:53.697Z,21.90
2019-05-13T13:20:24.230Z,22.20
2019-05-13T13:22:52.312Z,22.20
2019-05-13T13:25:23.939Z,22.00
2019-05-13T13:28:10.808Z,21.80
2019-05-13T13:30:24.124Z,21.80
2019-05-13T13:32:54.813Z,22.20
2019-05-13T13:35:24.664Z,22.50
2019-05-13T13:37:54.026Z,22.40
2019-05-13T13:40:29.040Z,22.20
2019-05-13T13:42:54.695Z,21.70
2019-05-13T13:45:24.202Z,21.70
2019-05-13T13:48:03.090Z,21.80
2019-05-13T13:50:25.096Z,22.30
2019-05-13T13:52:54.612Z,22.20
2019-05-13T13:55:25.891Z,22.10
2019-05-13T13:57:56.700Z,22.10
2019-05-13T14:00:38.459Z,22.20
2019-05-13T14:02:57.594Z,22.20
2019-05-13T14:05:26.989Z,22.30
2019-05-13T14:07:56.390Z,22.60
2019-05-13T14:10:25.810Z,22.90
2019-05-13T14:12:55.241Z,23.00
2019-05-13T14:15:24.577Z,22.70
2019-05-13T14:17:54.274Z,22.50
2019-05-13T14:20:23.678Z,22.50
2019-05-13T14:22:57.692Z,22.00
2019-05-13T14:25:24.101Z,21.90
2019-05-13T14:27:53.420Z,22.00
2019-05-13T14:30:23.319Z,21.80
2019-05-13T14:32:53.038Z,22.00
2019-05-13T14:35:22.487Z,22.00
2019-05-13T14:37:52.040Z,22.00
2019-05-13T14:40:22.432Z,21.50
2019-05-13T14:42:52.778Z,22.00
2019-05-13T14:45:23.844Z,22.10
2019-05-13T14:47:53.637Z,22.50
2019-05-13T14:50:23.073Z,22.80
2019-05-13T14:52:52.479Z,22.60
2019-05-13T14:55:21.987Z,22.70
2019-05-13T14:57:52.531Z,22.40
2019-05-13T15:00:22.368Z,22.40
2019-05-13T15:02:51.941Z,22.60
2019-05-13T15:05:22.048Z,22.90
2019-05-13T15:07:52.781Z,22.80
2019-05-13T15:10:22.555Z,23.10
2019-05-13T15:12:52.542Z,23.00
2019-05-13T15:15:22.482Z,22.90
2019-05-13T15:17:52.072Z,22.60
2019-05-13T15:20:21.851Z,22.60
2019-05-13T15:22:52.075Z,22.30
2019-05-13T15:25:22.075Z,22.20
2019-05-13T15:27:53.009Z,21.80
2019-05-13T15:30:22.369Z,22.20
2019-05-13T15:32:52.583Z,22.50
2019-05-13T15:35:22.198Z,22.20
2019-05-13T15:37:52.390Z,22.00
2019-05-13T15:40:22.649Z,21.80
2019-05-13T15:42:52.430Z,21.40
2019-05-13T15:45:21.836Z,21.20
2019-05-13T15:47:54.628Z,20.50
2019-05-13T15:50:24.016Z,20.10
2019-05-13T15:52:53.444Z,19.80
2019-05-13T15:55:22.997Z,19.60
2019-05-13T15:57:52.404Z,19.40
2019-05-13T16:00:22.065Z,19.10
2019-05-13T16:02:52.206Z,19.00
2019-05-13T16:05:21.745Z,18.90
2019-05-13T16:07:54.155Z,19.10
2019-05-13T16:10:23.635Z,18.80
2019-05-13T16:12:54.111Z,18.60
2019-05-13T16:15:23.598Z,18.60
2019-05-13T16:17:52.877Z,18.60
2019-05-13T16:20:22.322Z,18.60
2019-05-13T16:22:52.723Z,18.40
2019-05-13T16:25:22.417Z,18.10
2019-05-13T16:27:52.110Z,17.90
2019-05-13T16:30:22.620Z,17.80
2019-05-13T16:32:52.279Z,17.60
2019-05-13T16:35:21.689Z,17.50
2019-05-13T16:37:51.244Z,17.40
2019-05-13T16:40:22.255Z,17.10
2019-05-13T16:42:52.078Z,16.90
2019-05-13T16:45:21.896Z,16.90
2019-05-13T16:47:57.707Z,16.90
2019-05-13T16:50:22.482Z,16.80
2019-05-13T16:52:51.890Z,16.70
2019-05-13T16:55:21.281Z,16.60
2019-05-13T16:57:51.309Z,16.60
2019-05-13T17:00:20.900Z,16.40
2019-05-13T17:02:51.838Z,16.30
2019-05-13T17:05:21.392Z,16.20
2019-05-13T17:07:51.504Z,16.10
2019-05-13T17:10:22.533Z,16.10
2019-05-13T17:12:52.453Z,16.10
2019-05-13T17:15:21.853Z,16.00
2019-05-13T17:17:51.559Z,15.80
2019-05-13T17:20:21.576Z,15.70
2019-05-13T17:22:51.376Z,15.70
2019-05-13T17:25:20.823Z,15.60
2019-05-13T17:27:51.492Z,15.60
2019-05-13T17:30:22.046Z,15.40
2019-05-13T17:32:51.642Z,15.40
2019-05-13T17:35:21.949Z,15.30
2019-05-13T17:37:51.378Z,15.20
2019-05-13T17:40:22.482Z,15.20
2019-05-13T17:42:51.943Z,15.10
2019-05-13T17:45:21.963Z,15.00
2019-05-13T17:47:52.038Z,14.90
2019-05-13T17:50:22.269Z,14.90
2019-05-13T17:52:51.677Z,14.70
2019-05-13T17:55:22.323Z,14.60
2019-05-13T17:57:51.811Z,14.40
2019-05-13T18:00:21.665Z,14.40
2019-05-13T18:02:51.530Z,14.30
2019-05-13T18:05:22.512Z,14.20
2019-05-13T18:07:51.943Z,14.10
2019-05-13T18:10:22.603Z,14.10
2019-05-13T18:12:52.072Z,14.00
2019-05-13T18:15:22.172Z,13.90
2019-05-13T18:17:52.254Z,13.80
2019-05-13T18:20:21.969Z,13.70
2019-05-13T18:23:12.122Z,13.50
2019-05-13T18:25:42.234Z,13.40
2019-05-13T18:28:27.198Z,13.30
2019-05-13T18:30:43.035Z,13.10
2019-05-13T18:33:12.425Z,13.10
2019-05-13T18:35:41.963Z,13.00
2019-05-13T18:38:11.978Z,12.90
2019-05-13T18:40:41.924Z,12.70
2019-05-13T18:43:14.001Z,12.60
2019-05-13T18:45:43.687Z,12.50
2019-05-13T18:48:13.112Z,12.40
2019-05-13T18:50:42.460Z,12.30
2019-05-13T18:53:11.932Z,12.20
2019-05-13T18:55:41.718Z,12.10
2019-05-13T18:58:11.726Z,12.00
2019-05-13T19:00:41.630Z,11.80
2019-05-13T19:03:12.435Z,11.70
2019-05-13T19:05:42.285Z,11.60
2019-05-13T19:08:12.295Z,11.50
2019-05-13T19:10:41.954Z,11.40
2019-05-13T19:13:12.384Z,11.30
2019-05-13T19:15:41.994Z,11.20
2019-05-13T19:18:12.249Z,11.20
2019-05-13T19:20:42.012Z,11.10
2019-05-13T19:23:11.920Z,11.00
2019-05-13T19:25:42.668Z,10.90
2019-05-13T19:28:12.437Z,10.80
2019-05-13T19:30:41.847Z,10.70
2019-05-13T19:33:12.123Z,10.70
2019-05-13T19:35:42.591Z,10.60
2019-05-13T19:38:12.307Z,10.50
2019-05-13T19:40:42.141Z,10.40
2019-05-13T19:43:11.802Z,10.30
2019-05-13T19:45:41.762Z,10.20
2019-05-13T19:48:11.878Z,10.10
2019-05-13T19:50:43.364Z,10.10
2019-05-13T19:53:12.532Z,10.00
2019-05-13T19:55:41.849Z,9.90
2019-05-13T19:58:12.458Z,9.80
2019-05-13T20:00:42.523Z,9.80
2019-05-13T20:03:12.096Z,9.70
2019-05-13T20:05:41.702Z,9.70
2019-05-13T20:08:11.072Z,9.60
2019-05-13T20:10:42.335Z,9.50
2019-05-13T20:13:11.806Z,9.40
2019-05-13T20:15:43.952Z,9.40
2019-05-13T20:18:13.271Z,9.30
2019-05-13T20:20:42.773Z,9.30
2019-05-13T20:23:14.685Z,9.20
2019-05-13T20:25:49.492Z,9.20
2019-05-13T20:28:19.471Z,9.10
2019-05-13T20:30:51.004Z,9.10
2019-05-13T20:33:22.032Z,9.00
2019-05-13T20:35:50.771Z,8.90
2019-05-13T20:38:22.016Z,8.90
2019-05-13T20:40:51.905Z,8.80
2019-05-13T20:43:22.502Z,8.80
2019-05-13T20:45:52.027Z,8.70
2019-05-13T20:48:21.353Z,8.70
2019-05-13T20:50:51.914Z,8.60
2019-05-13T20:53:21.804Z,8.60
2019-05-13T20:55:52.084Z,8.50
2019-05-13T20:58:21.536Z,8.40
2019-05-13T21:00:51.509Z,8.40
2019-05-13T21:03:22.154Z,8.30
2019-05-13T21:05:52.044Z,8.30
2019-05-13T21:08:21.798Z,8.20
2019-05-13T21:10:51.675Z,8.20
2019-05-13T21:13:21.269Z,8.10
2019-05-13T21:15:51.890Z,8.10
2019-05-13T21:18:22.163Z,8.00
2019-05-13T21:20:51.826Z,8.00
2019-05-13T21:23:21.747Z,8.00
2019-05-13T21:25:51.346Z,7.90
2019-05-13T21:28:22.027Z,7.80
2019-05-13T21:30:51.570Z,7.80
2019-05-13T21:33:22.154Z,7.70
2019-05-13T21:35:51.502Z,7.70
2019-05-13T21:38:22.261Z,7.60
2019-05-13T21:40:52.349Z,7.50
2019-05-13T21:43:21.905Z,7.50
2019-05-13T21:45:52.259Z,7.40
2019-05-13T21:48:21.911Z,7.40
2019-05-13T21:50:51.756Z,7.30
2019-05-13T21:53:24.105Z,7.30
2019-05-13T21:55:52.193Z,7.30
2019-05-13T21:58:22.334Z,7.20
2019-05-13T22:00:52.283Z,7.10
2019-05-13T22:03:21.847Z,7.10
2019-05-13T22:05:51.650Z,7.10
2019-05-13T22:08:21.775Z,7.00
2019-05-13T22:10:52.688Z,7.00
2019-05-13T22:13:22.031Z,6.90
2019-05-13T22:15:52.322Z,6.80
2019-05-13T22:18:21.975Z,6.80
2019-05-13T22:20:53.650Z,6.70
2019-05-13T22:23:22.233Z,6.70
2019-05-13T22:25:52.051Z,6.60
2019-05-13T22:28:22.139Z,6.60
2019-05-13T22:30:51.856Z,6.50
2019-05-13T22:33:21.679Z,6.50
2019-05-13T22:35:52.277Z,6.40
2019-05-13T22:38:21.763Z,6.40
2019-05-13T22:40:52.076Z,6.30
2019-05-13T22:43:21.491Z,6.30
2019-05-13T22:45:51.149Z,6.30
2019-05-13T22:48:22.220Z,6.20
2019-05-13T22:50:52.138Z,6.20
2019-05-13T22:53:21.618Z,6.20
2019-05-13T22:55:52.130Z,6.10
2019-05-13T22:58:22.508Z,6.10
2019-05-13T23:00:52.093Z,6.00
2019-05-13T23:03:21.546Z,5.90
2019-05-13T23:05:52.202Z,5.90
2019-05-13T23:08:21.787Z,5.80
2019-05-13T23:10:51.586Z,5.80
2019-05-13T23:13:20.931Z,5.70
2019-05-13T23:15:51.638Z,5.70
2019-05-13T23:18:22.184Z,5.60
2019-05-13T23:20:51.739Z,5.60
2019-05-13T23:23:22.190Z,5.60
2019-05-13T23:25:51.573Z,5.50
2019-05-13T23:28:21.673Z,5.50
2019-05-13T23:30:51.335Z,5.40
2019-05-13T23:33:21.941Z,5.40
2019-05-13T23:35:51.262Z,5.40
2019-05-13T23:38:21.422Z,5.30
2019-05-13T23:40:51.543Z,5.30
2019-05-13T23:43:21.848Z,5.20
2019-05-13T23:45:51.405Z,5.10
2019-05-13T23:48:21.610Z,5.10
2019-05-13T23:50:52.057Z,5.10
2019-05-13T23:53:21.991Z,5.00
2019-05-13T23:55:52.104Z,5.00
2019-05-13T23:58:24.260Z,4.90
